Terminal Aerodrome Forecast
Issued by NWS

Home | Current Version | Previous Version | Text Only | Print | Product List | Glossary On
Versions: 1 2 3 4 5 6 7 8 9 10 11 12 13
000
FTUS42 TJSJ 232300
TAFJMZ
TAF
TJMZ 232320Z 2400/2424 08008KT P6SM FEW040
     FM241500 09011KT P6SM VCSH SCT040
     FM242200 06006KT P6SM FEW040
      AMD NOT SKED TIL 241600=

USA.gov is the U.S. government's official web portal to all federal, state and local government web resources and services.